• Join FlightAware (Why Join?)
  • Login
  • US Flag 
10:01AM EDT


 

Airport Tracker/Info


-or-


 

Live Flight TrackerFlight Track Log ✈ OPT452 ✈ 09-Apr-2013 ✈ KIXD - KGUY

Flight Track Log - Related Links

Times and Time Zones

All times are in EDT time to prevent confusion due to time zone crossing. See the OPT452 flight status page for this flight to view local times or setup timezone preferences in your user account.

Time Position Orientation Groundspeed Altitude Reporting Facility
EDT Latitude Longitude Course Direction KTS MPH feet Rate Location/Type
08:18AM 38.8167 -94.9000 179° South 182 209 1,700  Level Kansas City TRACON
08:19AM 38.7494 -94.8981 179° South 203 234 5,200 2,640 Climbing Kansas City Center
08:20AM 38.6897 -94.9244 199° South 235 270 7,600 2,400 Climbing Kansas City Center
08:21AM 38.6292 -94.9608 205° Southwest 253 291 10,100 2,400 Climbing Kansas City Center
08:22AM 38.6008 -95.0586 250° West 266 306 12,600 2,280 Climbing Kansas City Center
08:23AM 38.5764 -95.1511 251° West 282 325 14,900 2,220 Climbing Kansas City Center
08:24AM 38.5528 -95.2417 252° West 281 323 17,200 2,460 Climbing Kansas City Center
08:25AM 38.5264 -95.3456 252° West 275 316 20,000 2,340 Climbing Kansas City Center
08:26AM 38.5019 -95.4308 250° West 270 311 22,000 1,860 Climbing Kansas City Center
08:27AM 38.4792 -95.5189 252° West 271 312 23,900 1,800 Climbing Kansas City Center
08:28AM 38.4522 -95.6206 251° West 271 312 25,700 1,380 Climbing Kansas City Center
08:29AM 38.4272 -95.7164 252° West 291 335 26,700 1,080 Climbing Kansas City Center
08:30AM 38.3925 -95.8386 250° West 320 368 27,900 1,080 Climbing Kansas City Center
08:31AM 38.3628 -95.9517 251° West 343 395 28,900 1,020 Climbing Kansas City Center
08:32AM 38.3311 -96.0681 251° West 354 407 30,000 1,260 Climbing Kansas City Center
08:33AM 38.2958 -96.1994 251° West 354 407 31,600 1,500 Climbing Kansas City Center
08:34AM 38.2656 -96.3103 251° West 347 399 33,100 1,320 Climbing Kansas City Center
08:35AM 38.2350 -96.4175 250° West 339 390 34,400 1,080 Climbing Kansas City Center
08:36AM 38.2025 -96.5353 251° West 337 388 35,400 720 Climbing Kansas City Center
08:37AM 38.1708 -96.6494 251° West 342 394 35,900 240 Climbing Kansas City Center
08:38AM 38.1378 -96.7672 250° West 352 405 36,000  Climbing Kansas City Center
08:39AM 38.1031 -96.8906 250° West 368 423 36,000  Level Kansas City Center
08:41AM 38.0683 -97.0153 251° West 374 430 36,000  Level Kansas City Center
08:42AM 38.0258 -97.1644 250° West 373 429 36,000  Level Kansas City Center
08:43AM 37.9914 -97.2856 250° West 367 422 36,000  Level Kansas City Center
08:44AM 37.9575 -97.4044 250° West 360 414 36,000  Level Kansas City Center
08:45AM 37.9197 -97.5308 249° West 360 414 36,000  Level Kansas City Center
08:46AM 37.8889 -97.6381 250° West 361 415 36,000  Level Kansas City Center
08:47AM 37.8528 -97.7581 249° West 362 417 36,000  Level Kansas City Center
08:48AM 37.8181 -97.8817 250° West 369 425 36,000  Level Kansas City Center
08:49AM 37.7753 -98.0289 250° West 371 427 36,000  Level Kansas City Center
08:50AM 37.7433 -98.1383 250° West 368 423 36,000  Level Kansas City Center
08:51AM 37.7072 -98.2606 250° West 369 425 36,000  Level Kansas City Center
08:52AM 37.6722 -98.3811 250° West 367 422 36,000  Level Kansas City Center
08:53AM 37.6350 -98.5022 249° West 369 425 36,000  Level Kansas City Center
08:54AM 37.6003 -98.6194 250° West 362 417 36,000  Level Kansas City Center
08:55AM 37.5581 -98.7561 249° West 352 405 36,000  Level Kansas City Center
08:56AM 37.5242 -98.8692 249° West 346 398 36,000  Level Kansas City Center
08:57AM 37.4908 -98.9817 250° West 345 397 36,000  Level Kansas City Center
08:58AM 37.4567 -99.0889 248° West 336 387 36,000  Level Kansas City Center
08:59AM 37.4231 -99.1997 249° West 337 388 36,000  Level Kansas City Center
09:00AM 37.3881 -99.3094 248° West 339 390 36,000  Level Kansas City Center
09:01AM 37.3544 -99.4200 249° West 339 390 36,000  Level Kansas City Center
09:02AM 37.3142 -99.5517 249° West 340 391 36,000  Level Kansas City Center
09:03AM 37.2797 -99.6614 248° West 347 399 36,000  Level Kansas City Center
09:04AM 37.2397 -99.7894 249° West 351 404 36,000  Level Kansas City Center
09:05AM 37.2047 -99.8994 248° West 354 407 36,000  Level Kansas City Center
09:06AM 37.1547 -99.9986 238° Southwest 349 402 36,000 -720 Level Kansas City Center
09:07AM 37.0981 -100.1089 237° Southwest 341 392 34,500 -1,980 Descending Kansas City Center
09:08AM 37.0475 -100.2044 236° Southwest 341 392 32,000 -2,520 Descending Kansas City Center
09:09AM 36.9892 -100.3175 237° Southwest 344 396 29,400 -2,460 Descending Kansas City Center
09:10AM 36.9378 -100.4144 236° Southwest 347 399 27,000 -2,340 Descending Kansas City Center
09:11AM 36.8856 -100.5144 237° Southwest 353 406 24,600 -2,520 Descending Kansas City Center
09:12AM 36.8247 -100.6269 236° Southwest 352 405 21,900 -2,460 Descending Kansas City Center
09:13AM 36.7769 -100.7186 237° Southwest 339 390 19,700 -2,280 Descending Kansas City Center
09:14AM 36.7231 -100.8203 237° Southwest 322 371 17,200 -2,040 Descending Kansas City Center
09:15AM 36.6803 -100.9022 237° Southwest 305 351 15,500 -1,980 Descending Kansas City Center
09:16AM 36.6306 -100.9933 236° Southwest 289 333 13,200 -2,100 Descending Kansas City Center
09:17AM 36.5856 -101.0753 236° Southwest 295 339 11,200 -1,860 Descending Kansas City Center
09:19AM 36.5458 -101.1525 237° Southwest 286 329 9,400 -1,800 Descending Kansas City Center
09:20AM 36.5044 -101.2286 236° Southwest 252 290 7,500 -1,620 Descending Kansas City Center
09:21AM 36.4628 -101.3047 236° Southwest 249 287 6,100 -1,380 Descending Kansas City Center
09:23AM 36.4551 -101.4986 293° West  Level FlightAware Approximate
09:30AM 36.6833 -101.5000 North  Level FlightAware Approximate
09:31AM 36.6851 -101.5078 North  Level Estimated
09:32AM 36.6833 -101.5000 North  Level FlightAware Approximate
09:33AM 36.6851 -101.5078 North  Level Estimated
09:34AM 36.6833 -101.5000 North  Level FlightAware Approximate